sensor_id;sensor_type;location;lat;lon;timestamp;P1;durP1;ratioP1;P2;durP2;ratioP2
49235;SDS011;35067;48.134;8.378;2023-03-01T00:01:05;22.85;;;11.73;;
49235;SDS011;35067;48.134;8.378;2023-03-01T00:02:16;19.90;;;11.02;;
49235;SDS011;35067;48.134;8.378;2023-03-01T00:03:22;20.40;;;10.77;;
49235;SDS011;35067;48.134;8.378;2023-03-01T00:04:28;19.05;;;11.23;;
49235;SDS011;35067;48.134;8.378;2023-03-01T00:05:34;21.75;;;11.60;;
49235;SDS011;35067;48.134;8.378;2023-03-01T00:06:41;21.23;;;11.18;;
49235;SDS011;35067;48.134;8.378;2023-03-01T00:07:52;24.17;;;11.98;;
49235;SDS011;35067;48.134;8.378;2023-03-01T00:08:58;22.67;;;11.02;;
49235;SDS011;35067;48.134;8.378;2023-03-01T00:10:04;19.63;;;10.55;;
49235;SDS011;35067;48.134;8.378;2023-03-01T00:12:28;22.67;;;11.82;;
49235;SDS011;35067;48.134;8.378;2023-03-01T00:13:34;20.10;;;11.43;;
49235;SDS011;35067;48.134;8.378;2023-03-01T00:14:41;20.17;;;10.85;;
49235;SDS011;35067;48.134;8.378;2023-03-01T00:15:46;21.08;;;11.35;;
49235;SDS011;35067;48.134;8.378;2023-03-01T00:16:52;23.85;;;12.85;;
49235;SDS011;35067;48.134;8.378;2023-03-01T00:17:58;18.92;;;10.95;;
49235;SDS011;35067;48.134;8.378;2023-03-01T00:19:03;21.48;;;11.70;;
49235;SDS011;35067;48.134;8.378;2023-03-01T00:20:09;21.33;;;12.23;;
49235;SDS011;35067;48.134;8.378;2023-03-01T00:21:16;20.35;;;10.80;;
49235;SDS011;35067;48.134;8.378;2023-03-01T00:22:21;20.80;;;10.73;;
49235;SDS011;35067;48.134;8.378;2023-03-01T00:23:27;18.90;;;10.00;;
49235;SDS011;35067;48.134;8.378;2023-03-01T00:24:32;20.13;;;11.27;;
49235;SDS011;35067;48.134;8.378;2023-03-01T00:25:41;26.55;;;12.05;;
49235;SDS011;35067;48.134;8.378;2023-03-01T00:26:46;24.05;;;12.38;;
49235;SDS011;35067;48.134;8.378;2023-03-01T00:27:51;24.38;;;12.48;;
49235;SDS011;35067;48.134;8.378;2023-03-01T00:28:57;21.75;;;11.95;;
49235;SDS011;35067;48.134;8.378;2023-03-01T00:30:02;24.02;;;11.77;;
49235;SDS011;35067;48.134;8.378;2023-03-01T00:31:05;24.42;;;11.90;;
49235;SDS011;35067;48.134;8.378;2023-03-01T00:32:09;17.90;;;10.18;;
49235;SDS011;35067;48.134;8.378;2023-03-01T00:33:14;20.33;;;10.35;;
49235;SDS011;35067;48.134;8.378;2023-03-01T00:34:20;24.17;;;11.55;;
49235;SDS011;35067;48.134;8.378;2023-03-01T00:35:25;24.05;;;12.57;;
49235;SDS011;35067;48.134;8.378;2023-03-01T00:36:32;19.33;;;11.30;;
49235;SDS011;35067;48.134;8.378;2023-03-01T00:37:37;21.65;;;11.40;;
49235;SDS011;35067;48.134;8.378;2023-03-01T00:38:43;21.10;;;11.35;;
49235;SDS011;35067;48.134;8.378;2023-03-01T00:39:49;23.10;;;12.30;;
49235;SDS011;35067;48.134;8.378;2023-03-01T00:40:54;22.52;;;11.60;;
49235;SDS011;35067;48.134;8.378;2023-03-01T00:41:59;21.73;;;12.18;;
49235;SDS011;35067;48.134;8.378;2023-03-01T00:43:04;22.45;;;11.57;;
49235;SDS011;35067;48.134;8.378;2023-03-01T00:44:09;23.02;;;11.82;;
49235;SDS011;35067;48.134;8.378;2023-03-01T00:45:14;20.13;;;10.45;;
49235;SDS011;35067;48.134;8.378;2023-03-01T00:46:21;20.00;;;11.02;;
49235;SDS011;35067;48.134;8.378;2023-03-01T00:47:28;23.80;;;11.15;;
49235;SDS011;35067;48.134;8.378;2023-03-01T00:48:33;25.58;;;13.15;;
49235;SDS011;35067;48.134;8.378;2023-03-01T00:49:39;25.35;;;13.00;;
49235;SDS011;35067;48.134;8.378;2023-03-01T00:50:44;24.50;;;12.30;;
49235;SDS011;35067;48.134;8.378;2023-03-01T00:51:49;25.02;;;12.25;;
49235;SDS011;35067;48.134;8.378;2023-03-01T00:52:55;24.13;;;11.25;;
49235;SDS011;35067;48.134;8.378;2023-03-01T00:54:01;24.55;;;11.63;;
49235;SDS011;35067;48.134;8.378;2023-03-01T00:55:04;21.35;;;11.13;;
49235;SDS011;35067;48.134;8.378;2023-03-01T00:56:09;23.33;;;12.10;;
49235;SDS011;35067;48.134;8.378;2023-03-01T00:57:15;21.55;;;11.23;;
49235;SDS011;35067;48.134;8.378;2023-03-01T00:58:20;23.23;;;12.35;;
49235;SDS011;35067;48.134;8.378;2023-03-01T00:59:25;20.33;;;11.45;;
49235;SDS011;35067;48.134;8.378;2023-03-01T01:00:31;22.70;;;12.02;;
49235;SDS011;35067;48.134;8.378;2023-03-01T01:01:36;25.17;;;12.60;;
49235;SDS011;35067;48.134;8.378;2023-03-01T01:02:42;22.45;;;13.07;;
49235;SDS011;35067;48.134;8.378;2023-03-01T01:03:52;22.65;;;11.75;;
49235;SDS011;35067;48.134;8.378;2023-03-01T01:05:04;25.55;;;12.60;;
49235;SDS011;35067;48.134;8.378;2023-03-01T01:06:14;23.38;;;12.75;;
49235;SDS011;35067;48.134;8.378;2023-03-01T01:07:28;20.83;;;11.50;;
49235;SDS011;35067;48.134;8.378;2023-03-01T01:08:33;25.65;;;12.10;;
49235;SDS011;35067;48.134;8.378;2023-03-01T01:09:39;25.27;;;12.43;;
49235;SDS011;35067;48.134;8.378;2023-03-01T01:10:46;22.10;;;12.20;;
49235;SDS011;35067;48.134;8.378;2023-03-01T01:11:52;29.55;;;12.90;;
49235;SDS011;35067;48.134;8.378;2023-03-01T01:12:58;20.88;;;11.55;;
49235;SDS011;35067;48.134;8.378;2023-03-01T01:14:03;25.45;;;12.32;;
49235;SDS011;35067;48.134;8.378;2023-03-01T01:15:09;20.63;;;10.82;;
49235;SDS011;35067;48.134;8.378;2023-03-01T01:16:18;20.75;;;11.70;;
49235;SDS011;35067;48.134;8.378;2023-03-01T01:17:26;21.98;;;11.48;;
49235;SDS011;35067;48.134;8.378;2023-03-01T01:18:32;23.55;;;12.68;;
49235;SDS011;35067;48.134;8.378;2023-03-01T01:19:38;24.92;;;11.95;;
49235;SDS011;35067;48.134;8.378;2023-03-01T01:20:43;26.90;;;11.75;;
49235;SDS011;35067;48.134;8.378;2023-03-01T01:21:49;21.25;;;11.52;;
49235;SDS011;35067;48.134;8.378;2023-03-01T01:22:55;19.58;;;10.95;;
49235;SDS011;35067;48.134;8.378;2023-03-01T01:24:02;20.33;;;11.68;;
49235;SDS011;35067;48.134;8.378;2023-03-01T01:25:04;23.05;;;11.05;;
49235;SDS011;35067;48.134;8.378;2023-03-01T01:26:10;20.85;;;10.90;;
49235;SDS011;35067;48.134;8.378;2023-03-01T01:27:25;22.33;;;11.38;;
49235;SDS011;35067;48.134;8.378;2023-03-01T01:28:31;18.02;;;10.55;;
49235;SDS011;35067;48.134;8.378;2023-03-01T01:29:37;20.65;;;11.38;;
49235;SDS011;35067;48.134;8.378;2023-03-01T01:30:42;19.85;;;10.25;;
49235;SDS011;35067;48.134;8.378;2023-03-01T01:31:48;19.98;;;10.60;;
49235;SDS011;35067;48.134;8.378;2023-03-01T01:32:54;22.13;;;10.98;;
49235;SDS011;35067;48.134;8.378;2023-03-01T01:34:00;18.33;;;10.70;;
49235;SDS011;35067;48.134;8.378;2023-03-01T01:35:04;20.08;;;10.63;;
49235;SDS011;35067;48.134;8.378;2023-03-01T01:36:09;20.75;;;11.43;;
49235;SDS011;35067;48.134;8.378;2023-03-01T01:37:15;20.42;;;10.75;;
49235;SDS011;35067;48.134;8.378;2023-03-01T01:38:20;18.63;;;10.73;;
49235;SDS011;35067;48.134;8.378;2023-03-01T01:39:26;19.65;;;10.05;;
49235;SDS011;35067;48.134;8.378;2023-03-01T01:40:32;19.00;;;11.40;;
49235;SDS011;35067;48.134;8.378;2023-03-01T01:41:39;19.00;;;10.35;;
49235;SDS011;35067;48.134;8.378;2023-03-01T01:42:47;19.30;;;10.07;;
49235;SDS011;35067;48.134;8.378;2023-03-01T01:44:10;20.45;;;10.98;;
49235;SDS011;35067;48.134;8.378;2023-03-01T01:45:32;23.25;;;9.48;;
49235;SDS011;35067;48.134;8.378;2023-03-01T01:46:47;21.00;;;11.65;;
49235;SDS011;35067;48.134;8.378;2023-03-01T01:48:19;19.75;;;10.68;;
49235;SDS011;35067;48.134;8.378;2023-03-01T01:50:43;20.50;;;10.95;;
49235;SDS011;35067;48.134;8.378;2023-03-01T01:51:51;18.27;;;10.40;;
49235;SDS011;35067;48.134;8.378;2023-03-01T01:53:34;19.05;;;10.05;;
49235;SDS011;35067;48.134;8.378;2023-03-01T01:54:46;21.45;;;10.45;;
49235;SDS011;35067;48.134;8.378;2023-03-01T01:56:03;22.40;;;11.00;;
49235;SDS011;35067;48.134;8.378;2023-03-01T01:57:11;19.92;;;11.20;;
49235;SDS011;35067;48.134;8.378;2023-03-01T01:58:31;21.48;;;11.23;;
49235;SDS011;35067;48.134;8.378;2023-03-01T01:59:37;17.85;;;10.57;;
49235;SDS011;35067;48.134;8.378;2023-03-01T02:00:44;23.08;;;11.52;;
49235;SDS011;35067;48.134;8.378;2023-03-01T02:01:51;18.80;;;10.77;;
49235;SDS011;35067;48.134;8.378;2023-03-01T02:02:59;20.45;;;11.02;;
49235;SDS011;35067;48.134;8.378;2023-03-01T02:04:09;20.17;;;9.85;;
49235;SDS011;35067;48.134;8.378;2023-03-01T02:05:17;23.45;;;11.65;;
49235;SDS011;35067;48.134;8.378;2023-03-01T02:06:49;20.48;;;10.18;;
49235;SDS011;35067;48.134;8.378;2023-03-01T02:08:03;18.15;;;10.73;;
49235;SDS011;35067;48.134;8.378;2023-03-01T02:09:11;18.65;;;10.15;;
49235;SDS011;35067;48.134;8.378;2023-03-01T02:10:20;21.38;;;11.20;;
49235;SDS011;35067;48.134;8.378;2023-03-01T02:11:28;19.10;;;11.13;;
49235;SDS011;35067;48.134;8.378;2023-03-01T02:12:36;21.15;;;11.18;;
49235;SDS011;35067;48.134;8.378;2023-03-01T02:13:43;19.70;;;10.55;;
49235;SDS011;35067;48.134;8.378;2023-03-01T02:14:49;20.85;;;10.77;;
49235;SDS011;35067;48.134;8.378;2023-03-01T02:15:55;19.60;;;11.35;;
49235;SDS011;35067;48.134;8.378;2023-03-01T02:17:01;18.50;;;10.48;;
49235;SDS011;35067;48.134;8.378;2023-03-01T02:18:04;18.80;;;10.25;;
49235;SDS011;35067;48.134;8.378;2023-03-01T02:19:10;18.45;;;10.20;;
49235;SDS011;35067;48.134;8.378;2023-03-01T02:20:35;20.77;;;11.68;;
49235;SDS011;35067;48.134;8.378;2023-03-01T02:21:59;20.58;;;11.07;;
49235;SDS011;35067;48.134;8.378;2023-03-01T02:23:15;20.45;;;11.45;;
49235;SDS011;35067;48.134;8.378;2023-03-01T02:24:35;19.75;;;11.30;;
49235;SDS011;35067;48.134;8.378;2023-03-01T02:25:55;22.15;;;11.57;;
49235;SDS011;35067;48.134;8.378;2023-03-01T02:28:08;23.38;;;11.50;;
49235;SDS011;35067;48.134;8.378;2023-03-01T02:29:18;21.65;;;10.23;;
49235;SDS011;35067;48.134;8.378;2023-03-01T02:30:24;22.13;;;10.93;;
49235;SDS011;35067;48.134;8.378;2023-03-01T02:31:29;22.08;;;11.20;;
49235;SDS011;35067;48.134;8.378;2023-03-01T02:32:47;23.40;;;11.52;;
49235;SDS011;35067;48.134;8.378;2023-03-01T02:33:57;18.13;;;11.38;;
49235;SDS011;35067;48.134;8.378;2023-03-01T02:35:03;17.88;;;10.32;;
49235;SDS011;35067;48.134;8.378;2023-03-01T02:36:15;24.67;;;12.38;;
49235;SDS011;35067;48.134;8.378;2023-03-01T02:37:25;21.38;;;11.85;;
49235;SDS011;35067;48.134;8.378;2023-03-01T02:38:32;22.55;;;11.80;;
49235;SDS011;35067;48.134;8.378;2023-03-01T02:39:42;21.45;;;12.00;;
49235;SDS011;35067;48.134;8.378;2023-03-01T02:40:49;24.80;;;12.48;;
49235;SDS011;35067;48.134;8.378;2023-03-01T02:41:55;21.63;;;12.07;;
49235;SDS011;35067;48.134;8.378;2023-03-01T02:43:00;22.23;;;12.35;;
49235;SDS011;35067;48.134;8.378;2023-03-01T02:44:08;20.45;;;11.45;;
49235;SDS011;35067;48.134;8.378;2023-03-01T02:45:14;18.73;;;10.82;;
49235;SDS011;35067;48.134;8.378;2023-03-01T02:46:17;20.60;;;12.13;;
49235;SDS011;35067;48.134;8.378;2023-03-01T02:47:22;25.50;;;11.35;;
49235;SDS011;35067;48.134;8.378;2023-03-01T02:48:28;20.42;;;11.50;;
49235;SDS011;35067;48.134;8.378;2023-03-01T02:49:45;20.63;;;11.02;;
49235;SDS011;35067;48.134;8.378;2023-03-01T02:53:53;20.98;;;12.02;;
49235;SDS011;35067;48.134;8.378;2023-03-01T02:55:30;24.58;;;11.88;;
49235;SDS011;35067;48.134;8.378;2023-03-01T02:56:36;19.58;;;10.43;;
49235;SDS011;35067;48.134;8.378;2023-03-01T02:57:43;23.27;;;12.68;;
49235;SDS011;35067;48.134;8.378;2023-03-01T02:58:47;21.95;;;11.45;;
49235;SDS011;35067;48.134;8.378;2023-03-01T02:59:57;22.25;;;11.75;;
49235;SDS011;35067;48.134;8.378;2023-03-01T03:01:07;20.70;;;11.43;;
49235;SDS011;35067;48.134;8.378;2023-03-01T03:02:22;20.85;;;11.55;;
49235;SDS011;35067;48.134;8.378;2023-03-01T03:03:41;23.17;;;12.35;;
49235;SDS011;35067;48.134;8.378;2023-03-01T03:04:47;19.48;;;10.95;;
49235;SDS011;35067;48.134;8.378;2023-03-01T03:05:52;20.20;;;11.32;;
49235;SDS011;35067;48.134;8.378;2023-03-01T03:06:58;22.20;;;11.80;;
49235;SDS011;35067;48.134;8.378;2023-03-01T03:08:04;20.95;;;12.00;;
49235;SDS011;35067;48.134;8.378;2023-03-01T03:09:09;19.48;;;10.40;;
49235;SDS011;35067;48.134;8.378;2023-03-01T03:10:16;21.17;;;12.32;;
49235;SDS011;35067;48.134;8.378;2023-03-01T03:11:28;19.77;;;11.13;;
49235;SDS011;35067;48.134;8.378;2023-03-01T03:12:35;20.17;;;11.80;;
49235;SDS011;35067;48.134;8.378;2023-03-01T03:13:41;23.88;;;13.52;;
49235;SDS011;35067;48.134;8.378;2023-03-01T03:14:52;21.98;;;11.48;;
49235;SDS011;35067;48.134;8.378;2023-03-01T03:15:58;22.45;;;12.57;;
49235;SDS011;35067;48.134;8.378;2023-03-01T03:17:04;20.40;;;11.95;;
49235;SDS011;35067;48.134;8.378;2023-03-01T03:18:11;23.27;;;12.50;;
49235;SDS011;35067;48.134;8.378;2023-03-01T03:19:20;22.50;;;11.60;;
49235;SDS011;35067;48.134;8.378;2023-03-01T03:20:26;24.13;;;12.52;;
49235;SDS011;35067;48.134;8.378;2023-03-01T03:21:34;20.25;;;11.40;;
49235;SDS011;35067;48.134;8.378;2023-03-01T03:22:40;20.80;;;12.30;;
49235;SDS011;35067;48.134;8.378;2023-03-01T03:23:46;20.42;;;11.68;;
49235;SDS011;35067;48.134;8.378;2023-03-01T03:24:51;21.15;;;11.70;;
49235;SDS011;35067;48.134;8.378;2023-03-01T03:25:57;19.20;;;11.05;;
49235;SDS011;35067;48.134;8.378;2023-03-01T03:27:06;19.67;;;11.00;;
49235;SDS011;35067;48.134;8.378;2023-03-01T03:28:09;20.50;;;11.25;;
49235;SDS011;35067;48.134;8.378;2023-03-01T03:29:14;22.65;;;11.85;;
49235;SDS011;35067;48.134;8.378;2023-03-01T03:30:20;20.55;;;11.15;;
49235;SDS011;35067;48.134;8.378;2023-03-01T03:31:26;23.33;;;13.13;;
49235;SDS011;35067;48.134;8.378;2023-03-01T03:32:32;20.55;;;12.00;;
49235;SDS011;35067;48.134;8.378;2023-03-01T03:33:38;20.40;;;11.52;;
49235;SDS011;35067;48.134;8.378;2023-03-01T03:34:44;19.08;;;11.02;;
49235;SDS011;35067;48.134;8.378;2023-03-01T03:35:50;20.92;;;11.13;;
49235;SDS011;35067;48.134;8.378;2023-03-01T03:36:56;21.30;;;11.80;;
49235;SDS011;35067;48.134;8.378;2023-03-01T03:38:04;20.85;;;11.90;;
49235;SDS011;35067;48.134;8.378;2023-03-01T03:39:20;19.45;;;11.13;;
49235;SDS011;35067;48.134;8.378;2023-03-01T03:40:26;22.55;;;11.77;;
49235;SDS011;35067;48.134;8.378;2023-03-01T03:41:37;20.90;;;11.15;;
49235;SDS011;35067;48.134;8.378;2023-03-01T03:42:42;21.45;;;11.25;;
49235;SDS011;35067;48.134;8.378;2023-03-01T03:43:48;20.45;;;11.57;;
49235;SDS011;35067;48.134;8.378;2023-03-01T03:44:54;20.13;;;12.00;;
49235;SDS011;35067;48.134;8.378;2023-03-01T03:46:00;18.58;;;11.70;;
49235;SDS011;35067;48.134;8.378;2023-03-01T03:47:09;21.20;;;11.88;;
49235;SDS011;35067;48.134;8.378;2023-03-01T03:48:14;22.77;;;12.07;;
49235;SDS011;35067;48.134;8.378;2023-03-01T03:49:21;20.48;;;11.23;;
49235;SDS011;35067;48.134;8.378;2023-03-01T03:50:27;22.40;;;11.57;;
49235;SDS011;35067;48.134;8.378;2023-03-01T03:51:33;20.65;;;12.20;;
49235;SDS011;35067;48.134;8.378;2023-03-01T03:52:39;18.63;;;11.43;;
49235;SDS011;35067;48.134;8.378;2023-03-01T03:53:45;24.58;;;12.30;;
49235;SDS011;35067;48.134;8.378;2023-03-01T03:54:51;20.38;;;11.02;;
49235;SDS011;35067;48.134;8.378;2023-03-01T03:55:57;24.45;;;12.20;;
49235;SDS011;35067;48.134;8.378;2023-03-01T03:57:03;22.58;;;11.65;;
49235;SDS011;35067;48.134;8.378;2023-03-01T03:58:05;19.17;;;11.33;;
49235;SDS011;35067;48.134;8.378;2023-03-01T03:59:09;23.67;;;12.13;;
49235;SDS011;35067;48.134;8.378;2023-03-01T04:00:17;21.95;;;13.10;;
49235;SDS011;35067;48.134;8.378;2023-03-01T04:01:25;22.80;;;11.45;;
49235;SDS011;35067;48.134;8.378;2023-03-01T04:02:31;23.92;;;12.52;;
49235;SDS011;35067;48.134;8.378;2023-03-01T04:03:36;20.48;;;11.95;;
49235;SDS011;35067;48.134;8.378;2023-03-01T04:04:42;19.55;;;12.13;;
49235;SDS011;35067;48.134;8.378;2023-03-01T04:05:48;21.10;;;11.77;;
49235;SDS011;35067;48.134;8.378;2023-03-01T04:06:55;21.05;;;11.65;;
49235;SDS011;35067;48.134;8.378;2023-03-01T04:08:01;22.48;;;11.95;;
49235;SDS011;35067;48.134;8.378;2023-03-01T04:09:03;21.92;;;12.10;;
49235;SDS011;35067;48.134;8.378;2023-03-01T04:10:04;18.73;;;10.80;;
49235;SDS011;35067;48.134;8.378;2023-03-01T04:11:09;22.90;;;12.60;;
49235;SDS011;35067;48.134;8.378;2023-03-01T04:12:35;23.33;;;12.80;;
49235;SDS011;35067;48.134;8.378;2023-03-01T04:13:41;21.50;;;11.65;;
49235;SDS011;35067;48.134;8.378;2023-03-01T04:14:47;21.08;;;11.90;;
49235;SDS011;35067;48.134;8.378;2023-03-01T04:15:53;26.30;;;13.00;;
49235;SDS011;35067;48.134;8.378;2023-03-01T04:16:58;20.55;;;11.90;;
49235;SDS011;35067;48.134;8.378;2023-03-01T04:18:03;23.38;;;12.77;;
49235;SDS011;35067;48.134;8.378;2023-03-01T04:19:08;22.10;;;11.98;;
49235;SDS011;35067;48.134;8.378;2023-03-01T04:20:15;23.38;;;12.80;;
49235;SDS011;35067;48.134;8.378;2023-03-01T04:21:29;26.23;;;13.27;;
49235;SDS011;35067;48.134;8.378;2023-03-01T04:22:35;25.08;;;13.13;;
49235;SDS011;35067;48.134;8.378;2023-03-01T04:23:40;22.00;;;12.35;;
49235;SDS011;35067;48.134;8.378;2023-03-01T04:24:46;21.83;;;12.25;;
49235;SDS011;35067;48.134;8.378;2023-03-01T04:25:52;22.10;;;12.48;;
49235;SDS011;35067;48.134;8.378;2023-03-01T04:26:59;26.30;;;12.25;;
49235;SDS011;35067;48.134;8.378;2023-03-01T04:28:04;22.38;;;12.85;;
49235;SDS011;35067;48.134;8.378;2023-03-01T04:29:09;24.80;;;12.50;;
49235;SDS011;35067;48.134;8.378;2023-03-01T04:30:14;22.55;;;12.20;;
49235;SDS011;35067;48.134;8.378;2023-03-01T04:31:20;24.20;;;12.77;;
49235;SDS011;35067;48.134;8.378;2023-03-01T04:32:26;20.13;;;11.70;;
49235;SDS011;35067;48.134;8.378;2023-03-01T04:33:31;22.90;;;12.35;;
49235;SDS011;35067;48.134;8.378;2023-03-01T04:34:37;22.83;;;12.88;;
49235;SDS011;35067;48.134;8.378;2023-03-01T04:35:42;20.48;;;11.85;;
49235;SDS011;35067;48.134;8.378;2023-03-01T04:36:48;21.95;;;12.85;;
49235;SDS011;35067;48.134;8.378;2023-03-01T04:37:53;23.75;;;12.38;;
49235;SDS011;35067;48.134;8.378;2023-03-01T04:38:58;21.23;;;13.05;;
49235;SDS011;35067;48.134;8.378;2023-03-01T04:40:04;23.77;;;12.85;;
49235;SDS011;35067;48.134;8.378;2023-03-01T04:41:18;23.27;;;13.25;;
49235;SDS011;35067;48.134;8.378;2023-03-01T04:42:23;24.55;;;13.07;;
49235;SDS011;35067;48.134;8.378;2023-03-01T04:43:29;26.55;;;13.13;;
49235;SDS011;35067;48.134;8.378;2023-03-01T04:44:34;22.10;;;12.15;;
49235;SDS011;35067;48.134;8.378;2023-03-01T04:45:40;26.10;;;13.95;;
49235;SDS011;35067;48.134;8.378;2023-03-01T04:46:48;27.90;;;12.88;;
49235;SDS011;35067;48.134;8.378;2023-03-01T04:47:53;22.95;;;12.90;;
49235;SDS011;35067;48.134;8.378;2023-03-01T04:48:58;22.58;;;12.65;;
49235;SDS011;35067;48.134;8.378;2023-03-01T04:50:04;24.67;;;13.75;;
49235;SDS011;35067;48.134;8.378;2023-03-01T04:51:09;26.92;;;13.63;;
49235;SDS011;35067;48.134;8.378;2023-03-01T04:52:14;28.98;;;14.57;;
49235;SDS011;35067;48.134;8.378;2023-03-01T04:53:20;23.00;;;12.85;;
49235;SDS011;35067;48.134;8.378;2023-03-01T04:54:25;23.45;;;13.02;;
49235;SDS011;35067;48.134;8.378;2023-03-01T04:55:31;23.70;;;12.85;;
49235;SDS011;35067;48.134;8.378;2023-03-01T04:56:36;24.33;;;13.60;;
49235;SDS011;35067;48.134;8.378;2023-03-01T04:57:42;22.13;;;12.02;;
49235;SDS011;35067;48.134;8.378;2023-03-01T04:58:47;28.90;;;13.20;;
49235;SDS011;35067;48.134;8.378;2023-03-01T04:59:53;23.85;;;12.23;;
49235;SDS011;35067;48.134;8.378;2023-03-01T05:00:58;23.23;;;13.40;;
49235;SDS011;35067;48.134;8.378;2023-03-01T05:02:03;24.55;;;13.23;;
49235;SDS011;35067;48.134;8.378;2023-03-01T05:03:08;23.50;;;12.30;;
49235;SDS011;35067;48.134;8.378;2023-03-01T05:04:14;26.40;;;14.07;;
49235;SDS011;35067;48.134;8.378;2023-03-01T05:05:17;26.23;;;13.27;;
49235;SDS011;35067;48.134;8.378;2023-03-01T05:06:30;24.88;;;12.25;;
49235;SDS011;35067;48.134;8.378;2023-03-01T05:07:35;24.75;;;13.30;;
49235;SDS011;35067;48.134;8.378;2023-03-01T05:08:41;24.08;;;13.18;;
49235;SDS011;35067;48.134;8.378;2023-03-01T05:09:46;24.02;;;12.77;;
49235;SDS011;35067;48.134;8.378;2023-03-01T05:10:52;23.85;;;12.73;;
49235;SDS011;35067;48.134;8.378;2023-03-01T05:11:57;24.88;;;13.23;;
49235;SDS011;35067;48.134;8.378;2023-03-01T05:13:03;23.05;;;12.02;;
49235;SDS011;35067;48.134;8.378;2023-03-01T05:14:09;23.20;;;13.23;;
49235;SDS011;35067;48.134;8.378;2023-03-01T05:15:14;23.38;;;12.70;;
49235;SDS011;35067;48.134;8.378;2023-03-01T05:16:19;28.08;;;13.15;;
49235;SDS011;35067;48.134;8.378;2023-03-01T05:17:21;20.95;;;12.73;;
49235;SDS011;35067;48.134;8.378;2023-03-01T05:18:27;21.52;;;12.70;;
49235;SDS011;35067;48.134;8.378;2023-03-01T05:19:33;22.75;;;12.77;;
49235;SDS011;35067;48.134;8.378;2023-03-01T05:20:38;24.88;;;13.27;;
49235;SDS011;35067;48.134;8.378;2023-03-01T05:21:44;27.17;;;14.68;;
49235;SDS011;35067;48.134;8.378;2023-03-01T05:23:08;23.85;;;12.88;;
49235;SDS011;35067;48.134;8.378;2023-03-01T05:24:14;22.58;;;12.13;;
49235;SDS011;35067;48.134;8.378;2023-03-01T05:25:16;22.95;;;12.25;;
49235;SDS011;35067;48.134;8.378;2023-03-01T05:26:22;25.27;;;13.30;;
49235;SDS011;35067;48.134;8.378;2023-03-01T05:27:32;23.38;;;13.00;;
49235;SDS011;35067;48.134;8.378;2023-03-01T05:28:37;25.42;;;13.23;;
49235;SDS011;35067;48.134;8.378;2023-03-01T05:29:43;22.48;;;12.68;;
49235;SDS011;35067;48.134;8.378;2023-03-01T05:30:48;21.92;;;12.68;;
49235;SDS011;35067;48.134;8.378;2023-03-01T05:31:59;29.65;;;13.82;;
49235;SDS011;35067;48.134;8.378;2023-03-01T05:33:03;23.80;;;12.88;;
49235;SDS011;35067;48.134;8.378;2023-03-01T05:34:04;21.63;;;12.68;;
49235;SDS011;35067;48.134;8.378;2023-03-01T05:35:09;26.75;;;14.00;;
49235;SDS011;35067;48.134;8.378;2023-03-01T05:36:18;25.08;;;13.30;;
49235;SDS011;35067;48.134;8.378;2023-03-01T05:37:23;23.80;;;12.30;;
49235;SDS011;35067;48.134;8.378;2023-03-01T05:38:29;25.08;;;12.60;;
49235;SDS011;35067;48.134;8.378;2023-03-01T05:39:34;22.08;;;12.60;;
49235;SDS011;35067;48.134;8.378;2023-03-01T05:40:43;24.83;;;13.13;;
49235;SDS011;35067;48.134;8.378;2023-03-01T05:41:45;27.00;;;13.60;;
49235;SDS011;35067;48.134;8.378;2023-03-01T05:42:55;49.30;;;25.27;;
49235;SDS011;35067;48.134;8.378;2023-03-01T05:44:00;59.72;;;28.75;;
49235;SDS011;35067;48.134;8.378;2023-03-01T05:45:04;27.30;;;14.68;;
49235;SDS011;35067;48.134;8.378;2023-03-01T05:46:14;27.17;;;14.35;;
49235;SDS011;35067;48.134;8.378;2023-03-01T05:47:17;25.58;;;14.35;;
49235;SDS011;35067;48.134;8.378;2023-03-01T05:48:22;24.90;;;14.27;;
49235;SDS011;35067;48.134;8.378;2023-03-01T05:49:28;25.10;;;13.60;;
49235;SDS011;35067;48.134;8.378;2023-03-01T05:50:34;26.42;;;14.05;;
49235;SDS011;35067;48.134;8.378;2023-03-01T05:51:45;27.38;;;14.68;;
49235;SDS011;35067;48.134;8.378;2023-03-01T05:53:04;22.38;;;12.25;;
49235;SDS011;35067;48.134;8.378;2023-03-01T05:54:17;23.27;;;12.68;;
49235;SDS011;35067;48.134;8.378;2023-03-01T05:55:24;22.80;;;12.65;;
49235;SDS011;35067;48.134;8.378;2023-03-01T05:56:32;24.27;;;13.20;;
49235;SDS011;35067;48.134;8.378;2023-03-01T05:57:39;22.88;;;13.30;;
49235;SDS011;35067;48.134;8.378;2023-03-01T05:58:45;20.45;;;11.95;;
49235;SDS011;35067;48.134;8.378;2023-03-01T05:59:53;22.58;;;13.45;;
49235;SDS011;35067;48.134;8.378;2023-03-01T06:00:58;25.25;;;14.93;;
49235;SDS011;35067;48.134;8.378;2023-03-01T06:02:03;26.45;;;14.30;;
49235;SDS011;35067;48.134;8.378;2023-03-01T06:03:09;23.50;;;12.88;;
49235;SDS011;35067;48.134;8.378;2023-03-01T06:04:17;22.88;;;12.85;;
49235;SDS011;35067;48.134;8.378;2023-03-01T06:05:23;26.92;;;14.52;;
49235;SDS011;35067;48.134;8.378;2023-03-01T06:06:29;21.38;;;12.48;;
49235;SDS011;35067;48.134;8.378;2023-03-01T06:07:39;20.55;;;12.13;;
49235;SDS011;35067;48.134;8.378;2023-03-01T06:08:46;24.55;;;14.00;;
49235;SDS011;35067;48.134;8.378;2023-03-01T06:09:52;23.08;;;12.95;;
49235;SDS011;35067;48.134;8.378;2023-03-01T06:10:57;29.95;;;13.85;;
49235;SDS011;35067;48.134;8.378;2023-03-01T06:12:03;21.98;;;12.13;;
49235;SDS011;35067;48.134;8.378;2023-03-01T06:13:08;22.60;;;13.38;;
49235;SDS011;35067;48.134;8.378;2023-03-01T06:14:14;24.30;;;12.55;;
49235;SDS011;35067;48.134;8.378;2023-03-01T06:15:20;27.83;;;15.95;;
49235;SDS011;35067;48.134;8.378;2023-03-01T06:16:26;25.15;;;14.15;;
49235;SDS011;35067;48.134;8.378;2023-03-01T06:17:33;23.92;;;13.52;;
49235;SDS011;35067;48.134;8.378;2023-03-01T06:18:42;22.48;;;12.07;;
49235;SDS011;35067;48.134;8.378;2023-03-01T06:19:48;25.67;;;14.60;;
49235;SDS011;35067;48.134;8.378;2023-03-01T06:20:54;22.35;;;13.73;;
49235;SDS011;35067;48.134;8.378;2023-03-01T06:22:01;23.77;;;12.98;;
49235;SDS011;35067;48.134;8.378;2023-03-01T06:23:03;28.42;;;15.00;;
49235;SDS011;35067;48.134;8.378;2023-03-01T06:24:04;27.30;;;14.90;;
49235;SDS011;35067;48.134;8.378;2023-03-01T06:25:09;29.95;;;13.82;;
49235;SDS011;35067;48.134;8.378;2023-03-01T06:26:17;25.83;;;14.27;;
49235;SDS011;35067;48.134;8.378;2023-03-01T06:27:23;23.05;;;12.75;;
49235;SDS011;35067;48.134;8.378;2023-03-01T06:28:29;23.13;;;12.85;;
49235;SDS011;35067;48.134;8.378;2023-03-01T06:29:34;25.58;;;13.35;;
49235;SDS011;35067;48.134;8.378;2023-03-01T06:30:40;26.48;;;14.15;;
49235;SDS011;35067;48.134;8.378;2023-03-01T06:31:46;21.88;;;13.00;;
49235;SDS011;35067;48.134;8.378;2023-03-01T06:32:51;25.88;;;13.35;;
49235;SDS011;35067;48.134;8.378;2023-03-01T06:33:57;27.40;;;14.10;;
49235;SDS011;35067;48.134;8.378;2023-03-01T06:35:04;23.85;;;13.30;;
49235;SDS011;35067;48.134;8.378;2023-03-01T06:36:09;27.63;;;14.27;;
49235;SDS011;35067;48.134;8.378;2023-03-01T06:37:15;27.27;;;13.32;;
49235;SDS011;35067;48.134;8.378;2023-03-01T06:38:20;24.08;;;13.60;;
49235;SDS011;35067;48.134;8.378;2023-03-01T06:39:27;24.95;;;14.23;;
49235;SDS011;35067;48.134;8.378;2023-03-01T06:40:32;25.02;;;13.35;;